Time;durP1;ratioP1;P1;durP2;ratioP2;P2;SDS_P1;SDS_P2;PMS_P1;PMS_P2;Temp;Humidity;BMP_temperature;BMP_pressure;BME280_temperature;BME280_humidity;BME280_pressure;Samples;Min_cycle;Max_cycle;Signal;HPM_P1;HPM_P2
2022/06/01 00:00:16;;;;;;;8.88;3.65;;;;;;;;;;4973979;28;20242;-69
2022/06/01 00:02:42;;;;;;;14.38;6.00;;;;;;;;;;4973216;28;20034;-69
2022/06/01 00:05:09;;;;;;;15.10;4.72;;;;;;;;;;4968265;28;20045;-68
2022/06/01 00:07:35;;;;;;;14.38;7.40;;;;;;;;;;4974242;28;22482;-68
2022/06/01 00:10:00;;;;;;;14.70;7.38;;;;;;;;;;4972553;28;20038;-68
2022/06/01 00:12:25;;;;;;;14.27;6.78;;;;;;;;;;4968774;28;20036;-68
2022/06/01 00:14:51;;;;;;;18.80;8.32;;;;;;;;;;4972524;28;20046;-68
2022/06/01 00:17:16;;;;;;;15.02;7.90;;;;;;;;;;4973686;28;20124;-67
2022/06/01 00:19:42;;;;;;;15.85;8.15;;;;;;;;;;4967477;28;20124;-68
2022/06/01 00:22:14;;;;;;;14.02;8.25;;;;;;;;;;4973412;28;20854;-67
2022/06/01 00:24:39;;;;;;;;;;;;;;;;;;4971597;28;20046;-68
2022/06/01 00:27:05;;;;;;;23.50;13.48;;;;;;;;;;4945040;28;19913;-68
2022/06/01 00:29:30;;;;;;;17.02;6.53;;;;;;;;;;4982435;28;22826;-68
2022/06/01 00:31:58;;;;;;;19.05;11.40;;;;;;;;;;4972963;28;21021;-68
2022/06/01 00:34:25;;;;;;;19.08;9.77;;;;;;;;;;4975331;28;20037;-68
2022/06/01 00:36:51;;;;;;;16.25;11.55;;;;;;;;;;4964696;28;20044;-67
2022/06/01 00:39:19;;;;;;;19.13;11.55;;;;;;;;;;4970351;28;20038;-67
2022/06/01 00:41:46;;;;;;;10.05;4.97;;;;;;;;;;4972626;28;20121;-68
2022/06/01 00:44:11;;;;;;;7.57;3.85;;;;;;;;;;4969683;28;20095;-67
2022/06/01 00:46:37;;;;;;;5.50;1.88;;;;;;;;;;4973177;28;20053;-68
2022/06/01 00:49:19;;;;;;;4.78;1.67;;;;;;;;;;4967905;28;20042;-68
2022/06/01 00:51:45;;;;;;;2.08;1.70;;;;;;;;;;4972405;28;20053;-68
2022/06/01 00:54:11;;;;;;;4.70;1.83;;;;;;;;;;4973047;28;20034;-68
2022/06/01 00:56:38;;;;;;;4.55;2.10;;;;;;;;;;4973261;28;20044;-67
2022/06/01 00:59:05;;;;;;;4.32;2.00;;;;;;;;;;4970341;28;20068;-66
2022/06/01 01:01:33;;;;;;;7.70;4.20;;;;;;;;;;4979770;28;20763;-66
2022/06/01 01:04:00;;;;;;;9.23;6.10;;;;;;;;;;4978625;28;20060;-66
2022/06/01 01:06:32;;;;;;;7.93;5.50;;;;;;;;;;4980529;28;20037;-67
2022/06/01 01:08:58;;;;;;;;;;;;;;;;;;4989398;28;20593;-67
2022/06/01 01:11:35;;;;;;;13.82;10.43;;;;;;;;;;5004863;28;19913;-67
2022/06/01 01:14:01;;;;;;;17.92;11.60;;;;;;;;;;4978619;28;20847;-66
2022/06/01 01:16:27;;;;;;;14.93;9.18;;;;;;;;;;4993033;28;20045;-67
2022/06/01 01:18:54;;;;;;;16.23;7.55;;;;;;;;;;4990952;28;20738;-67
2022/06/01 01:21:19;;;;;;;13.70;7.22;;;;;;;;;;4987808;28;22086;-68
2022/06/01 01:23:45;;;;;;;17.73;7.45;;;;;;;;;;4974572;28;20045;-67
2022/06/01 01:26:14;;;;;;;17.67;6.55;;;;;;;;;;4975342;28;20327;-68
2022/06/01 01:28:40;;;;;;;18.55;7.28;;;;;;;;;;4970266;28;20041;-68
2022/06/01 01:31:07;;;;;;;17.33;7.90;;;;;;;;;;4971547;28;20479;-68
2022/06/01 01:33:33;;;;;;;17.48;9.10;;;;;;;;;;4970134;28;20041;-68
2022/06/01 01:36:01;;;;;;;16.20;7.82;;;;;;;;;;4969333;28;20127;-68
2022/06/01 01:38:40;;;;;;;19.02;8.93;;;;;;;;;;4969379;28;20061;-68
2022/06/01 01:41:10;;;;;;;24.08;11.70;;;;;;;;;;4984599;28;20140;-68
2022/06/01 01:43:39;;;;;;;27.00;13.77;;;;;;;;;;4971487;28;20096;-67
2022/06/01 01:46:04;;;;;;;15.48;8.82;;;;;;;;;;4962203;28;20038;-68
2022/06/01 01:48:33;;;;;;;16.02;9.05;;;;;;;;;;4973280;28;21753;-68
2022/06/01 01:50:58;;;;;;;14.48;9.15;;;;;;;;;;4957435;28;21579;-68
2022/06/01 01:53:24;;;;;;;20.33;12.00;;;;;;;;;;4975464;28;20610;-68
2022/06/01 01:56:07;;;;;;;19.30;13.50;;;;;;;;;;4973353;28;20037;-67
2022/06/01 01:58:55;;;;;;;15.18;9.10;;;;;;;;;;4957003;28;20866;-67
2022/06/01 02:01:34;;;;;;;12.00;8.88;;;;;;;;;;4984072;28;20939;-68
2022/06/01 02:06:03;;;;;;;14.73;10.25;;;;;;;;;;4974294;28;20925;-67
2022/06/01 02:06:52;;;;;;;10.27;6.80;;;;;;;;;;4974657;28;20033;-68
2022/06/01 02:09:17;;;;;;;13.95;8.55;;;;;;;;;;4971839;28;20072;-65
2022/06/01 02:14:56;;;;;;;10.23;8.30;;;;;;;;;;4974925;28;20857;-68
2022/06/01 02:17:31;;;;;;;11.88;9.23;;;;;;;;;;4971878;28;20076;-67
2022/06/01 02:20:01;;;;;;;10.70;8.90;;;;;;;;;;4971003;28;20042;-68
2022/06/01 02:22:29;;;;;;;18.88;13.18;;;;;;;;;;4975824;28;20179;-67
2022/06/01 02:24:55;;;;;;;16.75;12.52;;;;;;;;;;4975306;28;20114;-66
2022/06/01 02:27:21;;;;;;;13.20;10.05;;;;;;;;;;4976787;28;20045;-67
2022/06/01 02:29:46;;;;;;;13.35;8.88;;;;;;;;;;4975881;28;20922;-66
2022/06/01 02:32:12;;;;;;;19.95;12.98;;;;;;;;;;4975641;28;20051;-68
2022/06/01 02:34:40;;;;;;;20.42;13.10;;;;;;;;;;4974415;28;20038;-67
2022/06/01 02:37:07;;;;;;;17.08;11.10;;;;;;;;;;4975772;28;20046;-68
2022/06/01 02:39:37;;;;;;;21.23;13.60;;;;;;;;;;4977054;28;20048;-67
2022/06/01 02:42:26;;;;;;;22.30;14.55;;;;;;;;;;4986647;28;20164;-67
2022/06/01 02:44:59;;;;;;;23.05;13.38;;;;;;;;;;4974280;28;20125;-67
2022/06/01 02:47:26;;;;;;;22.52;14.98;;;;;;;;;;4975989;28;20030;-68
2022/06/01 02:49:51;;;;;;;24.55;17.08;;;;;;;;;;4971761;28;20046;-66
2022/06/01 02:52:17;;;;;;;20.80;13.23;;;;;;;;;;4995463;28;20065;-66
2022/06/01 02:54:42;;;;;;;22.13;14.57;;;;;;;;;;4995314;28;20037;-68
2022/06/01 02:57:08;;;;;;;22.90;14.82;;;;;;;;;;4994365;28;20218;-68
2022/06/01 02:59:33;;;;;;;21.10;12.88;;;;;;;;;;4994124;28;20037;-67
2022/06/01 03:02:02;;;;;;;19.80;12.30;;;;;;;;;;4992314;28;20195;-67
2022/06/01 03:04:27;;;;;;;27.27;15.38;;;;;;;;;;4994082;28;20050;-67
2022/06/01 03:06:53;;;;;;;20.80;13.85;;;;;;;;;;4993508;28;20072;-67
2022/06/01 03:09:18;;;;;;;15.02;13.07;;;;;;;;;;4993858;28;20152;-68
2022/06/01 03:11:43;;;;;;;18.95;12.65;;;;;;;;;;4978736;28;20044;-67
2022/06/01 03:14:09;;;;;;;25.10;13.45;;;;;;;;;;4994752;28;21717;-67
2022/06/01 03:16:34;;;;;;;22.00;13.38;;;;;;;;;;4967768;28;20183;-67
2022/06/01 03:19:00;;;;;;;22.98;15.02;;;;;;;;;;4986384;28;20030;-68
2022/06/01 03:21:25;;;;;;;23.95;16.30;;;;;;;;;;4973048;28;20505;-67
2022/06/01 03:23:50;;;;;;;21.40;16.30;;;;;;;;;;4972409;28;20050;-67
2022/06/01 03:26:18;;;;;;;19.20;13.18;;;;;;;;;;4973783;28;20038;-67
2022/06/01 03:28:44;;;;;;;21.80;14.23;;;;;;;;;;4975566;28;20041;-67
2022/06/01 03:31:09;;;;;;;29.92;20.67;;;;;;;;;;4975848;28;20065;-67
2022/06/01 03:33:35;;;;;;;28.90;20.38;;;;;;;;;;4974565;28;20038;-68
2022/06/01 03:36:03;;;;;;;32.13;20.65;;;;;;;;;;4978654;28;20036;-67
2022/06/01 03:38:31;;;;;;;31.55;20.33;;;;;;;;;;4973548;28;20138;-67
2022/06/01 03:41:01;;;;;;;27.52;15.90;;;;;;;;;;4974945;28;20091;-67
2022/06/01 03:43:26;;;;;;;24.42;13.57;;;;;;;;;;4974017;28;20175;-66
2022/06/01 03:45:58;;;;;;;17.92;11.90;;;;;;;;;;4955584;28;20045;-67
2022/06/01 03:48:26;;;;;;;21.60;12.05;;;;;;;;;;4970818;28;20038;-67
2022/06/01 03:50:55;;;;;;;21.88;13.18;;;;;;;;;;4960208;28;20053;-68
2022/06/01 03:53:23;;;;;;;15.98;10.85;;;;;;;;;;4972706;28;20038;-67
2022/06/01 03:55:48;;;;;;;22.25;14.50;;;;;;;;;;4972508;28;20123;-67
2022/06/01 03:58:18;;;;;;;20.83;13.73;;;;;;;;;;4978759;28;20066;-67
2022/06/01 04:00:45;;;;;;;16.80;8.90;;;;;;;;;;4973725;28;20041;-67
2022/06/01 04:03:11;;;;;;;9.90;5.30;;;;;;;;;;4970885;28;20585;-67
2022/06/01 04:05:36;;;;;;;12.82;5.78;;;;;;;;;;4973979;28;20037;-66
2022/06/01 04:08:02;;;;;;;9.70;5.93;;;;;;;;;;4971175;28;20038;-67
2022/06/01 04:10:27;;;;;;;9.07;5.57;;;;;;;;;;4972974;28;20132;-68
2022/06/01 04:12:52;;;;;;;9.63;5.07;;;;;;;;;;4973766;28;20030;-67
2022/06/01 04:15:20;;;;;;;9.52;5.10;;;;;;;;;;4971496;28;20203;-68
2022/06/01 04:17:45;;;;;;;10.63;5.38;;;;;;;;;;4974727;28;20037;-66
2022/06/01 04:20:11;;;;;;;10.90;5.32;;;;;;;;;;4974635;28;20077;-67
2022/06/01 04:22:39;;;;;;;8.65;5.18;;;;;;;;;;4974604;28;20154;-64
2022/06/01 04:25:08;;;;;;;9.88;4.18;;;;;;;;;;4972467;28;20834;-67
2022/06/01 04:27:36;;;;;;;8.65;3.38;;;;;;;;;;4994439;28;20037;-68
2022/06/01 04:30:03;;;;;;;5.40;2.65;;;;;;;;;;4992596;28;20136;-67
2022/06/01 04:32:32;;;;;;;8.60;2.72;;;;;;;;;;5006857;28;20037;-67
2022/06/01 04:34:57;;;;;;;6.07;2.22;;;;;;;;;;4971468;28;20042;-67
2022/06/01 04:37:23;;;;;;;6.13;2.40;;;;;;;;;;4977614;28;20957;-68
2022/06/01 04:39:48;;;;;;;3.53;1.70;;;;;;;;;;4970455;28;20137;-66
2022/06/01 04:42:14;;;;;;;4.32;2.10;;;;;;;;;;4971671;28;20080;-66
2022/06/01 04:44:40;;;;;;;6.95;1.95;;;;;;;;;;4973092;28;20150;-67
2022/06/01 04:47:06;;;;;;;4.65;1.88;;;;;;;;;;4959901;28;20045;-67
2022/06/01 04:49:31;;;;;;;4.78;1.85;;;;;;;;;;4971719;28;20735;-67
2022/06/01 04:51:59;;;;;;;3.58;1.80;;;;;;;;;;4972848;28;20038;-67
2022/06/01 04:54:24;;;;;;;5.57;1.88;;;;;;;;;;4976047;28;20034;-67
2022/06/01 04:56:50;;;;;;;5.40;1.92;;;;;;;;;;4972170;28;20037;-67
2022/06/01 04:59:17;;;;;;;3.08;1.42;;;;;;;;;;4973567;28;20403;-67
2022/06/01 05:01:42;;;;;;;5.07;1.33;;;;;;;;;;4986794;28;20338;-67
2022/06/01 05:04:08;;;;;;;2.53;1.20;;;;;;;;;;4971133;28;20034;-68
2022/06/01 05:06:33;;;;;;;2.97;0.90;;;;;;;;;;4971097;28;20041;-68
2022/06/01 05:08:58;;;;;;;4.50;1.20;;;;;;;;;;4970311;28;20034;-67
2022/06/01 05:11:24;;;;;;;2.75;1.02;;;;;;;;;;4969719;28;20074;-69
2022/06/01 05:13:49;;;;;;;3.90;0.90;;;;;;;;;;4972818;28;20041;-69
2022/06/01 05:16:15;;;;;;;3.95;0.95;;;;;;;;;;4972510;28;20038;-69
2022/06/01 05:18:40;;;;;;;3.35;0.95;;;;;;;;;;4970644;28;20034;-68
2022/06/01 05:21:06;;;;;;;3.28;0.90;;;;;;;;;;4971145;28;20037;-68
2022/06/01 05:23:31;;;;;;;4.00;0.85;;;;;;;;;;4972879;28;20124;-68
2022/06/01 05:25:59;;;;;;;4.43;0.90;;;;;;;;;;4973370;28;20596;-68
2022/06/01 05:28:26;;;;;;;1.63;0.70;;;;;;;;;;4949538;28;20144;-67
2022/06/01 05:30:55;;;;;;;1.98;0.70;;;;;;;;;;4995102;28;20149;-68
2022/06/01 05:33:21;;;;;;;2.85;1.25;;;;;;;;;;4976242;28;20566;-67
2022/06/01 05:35:48;;;;;;;2.20;0.73;;;;;;;;;;4974005;28;20052;-68
2022/06/01 05:38:14;;;;;;;3.53;0.93;;;;;;;;;;4973538;28;20045;-68
2022/06/01 05:40:39;;;;;;;4.22;1.08;;;;;;;;;;4974380;28;20038;-67
2022/06/01 05:43:14;;;;;;;3.38;1.10;;;;;;;;;;4974877;28;20286;-69
2022/06/01 05:45:40;;;;;;;3.80;0.95;;;;;;;;;;4974168;28;20068;-69
2022/06/01 05:48:06;;;;;;;3.80;1.23;;;;;;;;;;4976795;28;20026;-68
2022/06/01 05:50:31;;;;;;;3.10;1.20;;;;;;;;;;4974505;28;20033;-69
2022/06/01 05:52:57;;;;;;;3.03;1.20;;;;;;;;;;4979590;28;20058;-71
2022/06/01 05:55:22;;;;;;;1.83;1.10;;;;;;;;;;4986453;28;20185;-70
2022/06/01 05:57:47;;;;;;;4.68;1.50;;;;;;;;;;4983931;28;20045;-71
2022/06/01 06:00:16;;;;;;;5.05;2.22;;;;;;;;;;4984460;28;20030;-70
2022/06/01 06:02:41;;;;;;;4.75;2.20;;;;;;;;;;4976936;28;20133;-70
2022/06/01 06:06:11;;;;;;;5.10;2.50;;;;;;;;;;4980812;28;20050;-71
2022/06/01 06:07:52;;;;;;;5.47;2.35;;;;;;;;;;4984314;28;20038;-71
2022/06/01 06:10:18;;;;;;;4.88;2.20;;;;;;;;;;5000207;28;20064;-71
2022/06/01 06:12:45;;;;;;;4.00;2.55;;;;;;;;;;5006132;28;20037;-69
2022/06/01 06:15:11;;;;;;;6.20;2.67;;;;;;;;;;5003323;28;20047;-70
2022/06/01 06:17:37;;;;;;;4.65;2.35;;;;;;;;;;5002922;28;20375;-70
2022/06/01 06:20:02;;;;;;;5.95;2.47;;;;;;;;;;5005133;28;20085;-69
2022/06/01 06:22:30;;;;;;;4.82;2.22;;;;;;;;;;5000478;28;20038;-69
2022/06/01 06:24:55;;;;;;;4.47;1.98;;;;;;;;;;5018343;28;20060;-69
2022/06/01 06:27:20;;;;;;;3.20;1.70;;;;;;;;;;5006026;28;20033;-70
2022/06/01 06:29:46;;;;;;;5.68;1.70;;;;;;;;;;5010507;28;20103;-69
2022/06/01 06:32:11;;;;;;;3.75;1.73;;;;;;;;;;5006671;28;20121;-70
2022/06/01 06:34:38;;;;;;;3.78;1.80;;;;;;;;;;4989497;28;20045;-67
2022/06/01 06:37:04;;;;;;;4.72;1.88;;;;;;;;;;4999152;28;20044;-70
2022/06/01 06:39:30;;;;;;;4.13;1.70;;;;;;;;;;4989085;28;20034;-69
2022/06/01 06:41:55;;;;;;;3.10;1.63;;;;;;;;;;4992149;28;20112;-70
2022/06/01 06:44:20;;;;;;;4.25;1.52;;;;;;;;;;4986803;28;20124;-69
2022/06/01 06:46:46;;;;;;;2.33;1.40;;;;;;;;;;4983833;28;20466;-70
2022/06/01 06:49:11;;;;;;;2.45;1.17;;;;;;;;;;4991769;28;20037;-71
2022/06/01 06:51:36;;;;;;;3.58;1.13;;;;;;;;;;4998759;28;20048;-71
2022/06/01 06:54:02;;;;;;;3.17;0.90;;;;;;;;;;4993998;28;20134;-72
2022/06/01 06:56:27;;;;;;;2.05;0.90;;;;;;;;;;4993187;28;20505;-72
2022/06/01 06:58:53;;;;;;;2.60;0.80;;;;;;;;;;4990583;28;20338;-70
2022/06/01 07:01:18;;;;;;;3.33;0.90;;;;;;;;;;4994791;28;20187;-70
2022/06/01 07:03:44;;;;;;;4.05;0.80;;;;;;;;;;4990817;28;20198;-70
2022/06/01 07:06:09;;;;;;;1.63;0.70;;;;;;;;;;4997278;28;20044;-69
2022/06/01 07:08:35;;;;;;;3.25;0.90;;;;;;;;;;4995788;28;20045;-69
2022/06/01 07:11:01;;;;;;;5.38;0.95;;;;;;;;;;4990900;28;20400;-69
2022/06/01 07:13:32;;;;;;;1.48;0.80;;;;;;;;;;4988737;28;20052;-71
2022/06/01 07:16:03;;;;;;;3.60;1.00;;;;;;;;;;5005878;28;20054;-70
2022/06/01 07:18:29;;;;;;;;;;;;;;;;;;4992204;28;20320;-70
2022/06/01 07:20:54;;;;;;;2.90;1.00;;;;;;;;;;5005017;28;20002;-71
2022/06/01 07:23:19;;;;;;;3.15;1.00;;;;;;;;;;4988820;28;20140;-70
2022/06/01 07:25:45;;;;;;;2.50;0.93;;;;;;;;;;4989931;28;20145;-70
2022/06/01 07:28:10;;;;;;;4.05;1.10;;;;;;;;;;4992116;28;20640;-71
2022/06/01 07:30:36;;;;;;;3.28;1.08;;;;;;;;;;4991263;28;20047;-70
2022/06/01 07:33:01;;;;;;;3.67;1.00;;;;;;;;;;4985760;28;20474;-69
2022/06/01 07:35:29;;;;;;;3.03;0.90;;;;;;;;;;4989649;28;20049;-69
2022/06/01 07:43:23;;;;;;;2.95;1.00;;;;;;;;;;4994360;28;20045;-71
2022/06/01 07:45:49;;;;;;;4.88;1.10;;;;;;;;;;4983701;28;21066;-69
2022/06/01 07:48:14;;;;;;;5.40;1.13;;;;;;;;;;5001721;28;20609;-76
2022/06/01 07:50:40;;;;;;;2.58;1.05;;;;;;;;;;4993441;28;20115;-72
2022/06/01 07:53:07;;;;;;;2.58;1.10;;;;;;;;;;4995420;28;20124;-70
2022/06/01 07:55:34;;;;;;;4.00;1.10;;;;;;;;;;4992765;28;20224;-71
2022/06/01 07:58:00;;;;;;;6.30;1.30;;;;;;;;;;4970969;28;20658;-69
2022/06/01 08:00:25;;;;;;;3.17;0.90;;;;;;;;;;4969473;28;20878;-72
2022/06/01 08:02:51;;;;;;;2.72;1.20;;;;;;;;;;4973807;28;20081;-73
2022/06/01 08:05:18;;;;;;;5.97;1.35;;;;;;;;;;4971556;28;20069;-72
2022/06/01 08:07:44;;;;;;;3.13;1.20;;;;;;;;;;4972449;28;20871;-74
2022/06/01 08:10:11;;;;;;;3.13;1.30;;;;;;;;;;4972211;28;20042;-74
2022/06/01 08:15:21;;;;;;;4.95;1.63;;;;;;;;;;4970484;28;20720;-73
2022/06/01 08:17:47;;;;;;;3.55;1.35;;;;;;;;;;4972856;28;20088;-70
2022/06/01 08:20:13;;;;;;;4.35;1.73;;;;;;;;;;4976795;28;20141;-71
2022/06/01 08:22:40;;;;;;;4.50;1.75;;;;;;;;;;4970007;28;20047;-72
2022/06/01 08:25:06;;;;;;;3.42;1.73;;;;;;;;;;4971297;28;21172;-73
2022/06/01 08:27:31;;;;;;;3.58;1.75;;;;;;;;;;4974168;28;20137;-72
2022/06/01 08:29:56;;;;;;;3.50;1.70;;;;;;;;;;4967168;28;20507;-72
2022/06/01 08:32:23;;;;;;;4.72;1.63;;;;;;;;;;4965089;28;20356;-72
2022/06/01 08:34:48;;;;;;;5.50;1.45;;;;;;;;;;4982954;28;20037;-70
2022/06/01 08:37:14;;;;;;;2.28;1.30;;;;;;;;;;4988738;28;20956;-70
2022/06/01 08:39:39;;;;;;;3.92;1.50;;;;;;;;;;4983860;28;20115;-72
2022/06/01 08:42:05;;;;;;;2.30;1.40;;;;;;;;;;4969682;28;20033;-71
2022/06/01 08:44:35;;;;;;;4.75;1.90;;;;;;;;;;4969828;28;20045;-71
2022/06/01 08:47:03;;;;;;;4.15;1.50;;;;;;;;;;4969402;28;20061;-72
2022/06/01 08:49:30;;;;;;;3.35;1.40;;;;;;;;;;4969790;28;20042;-71
2022/06/01 08:51:56;;;;;;;4.35;1.38;;;;;;;;;;4981051;28;20039;-72
2022/06/01 08:54:22;;;;;;;5.95;1.70;;;;;;;;;;4971788;28;20038;-72
2022/06/01 08:56:48;;;;;;;4.05;1.35;;;;;;;;;;4962792;28;20142;-72
2022/06/01 08:59:14;;;;;;;3.25;1.40;;;;;;;;;;4987850;28;21473;-72
2022/06/01 09:01:43;;;;;;;5.68;1.30;;;;;;;;;;4989993;28;20563;-72
2022/06/01 09:04:22;;;;;;;4.07;1.38;;;;;;;;;;4987592;28;20036;-72
2022/06/01 09:07:01;;;;;;;4.05;1.50;;;;;;;;;;4979407;28;20274;-73
2022/06/01 09:09:34;;;;;;;3.58;1.92;;;;;;;;;;4985103;28;20269;-71
2022/06/01 09:12:00;;;;;;;3.97;1.70;;;;;;;;;;4955436;28;20708;-72
2022/06/01 09:14:29;;;;;;;6.18;1.58;;;;;;;;;;4967756;28;20041;-72
2022/06/01 09:16:59;;;;;;;3.55;1.70;;;;;;;;;;4967961;28;20488;-72
2022/06/01 09:22:37;;;;;;;5.10;1.88;;;;;;;;;;4966352;28;20041;-71
2022/06/01 09:25:00;;;;;;;4.57;1.70;;;;;;;;;;4987411;28;20042;-72
2022/06/01 09:37:07;;;;;;;4.88;1.90;;;;;;;;;;4859066;23;20576;-64
2022/06/01 09:39:33;;;;;;;3.45;2.00;;;;;;;;;;4814665;29;20051;-64
2022/06/01 09:42:16;;;;;;;5.13;2.00;;;;;;;;;;4840057;29;20511;-65
2022/06/01 09:44:46;;;;;;;4.88;1.95;;;;;;;;;;4844405;29;20044;-63
2022/06/01 09:47:21;;;;;;;2.97;1.80;;;;;;;;;;4844312;29;20076;-64
2022/06/01 09:49:51;;;;;;;3.45;1.90;;;;;;;;;;4845976;29;20056;-64
2022/06/01 09:52:31;;;;;;;3.92;1.98;;;;;;;;;;4839019;29;20124;-65
2022/06/01 09:55:05;;;;;;;3.78;2.00;;;;;;;;;;4844534;29;20033;-64
2022/06/01 09:57:35;;;;;;;4.68;2.10;;;;;;;;;;4827104;29;20089;-64
2022/06/01 10:08:20;;;;;;;3.90;2.10;;;;;;;;;;4847519;29;20047;-65
2022/06/01 10:11:00;;;;;;;6.05;2.47;;;;;;;;;;4828955;29;20047;-65
2022/06/01 10:13:33;;;;;;;4.47;2.30;;;;;;;;;;4850522;29;20063;-65
2022/06/01 10:16:12;;;;;;;5.18;1.90;;;;;;;;;;4850665;29;20047;-64
2022/06/01 10:18:39;;;;;;;4.53;2.30;;;;;;;;;;4864472;29;20108;-64
2022/06/01 10:21:08;;;;;;;5.18;2.80;;;;;;;;;;4848515;29;20044;-64
2022/06/01 10:23:46;;;;;;;4.72;2.80;;;;;;;;;;4851598;29;20140;-64
2022/06/01 10:26:29;;;;;;;5.18;3.28;;;;;;;;;;4849500;29;20882;-64
2022/06/01 10:29:11;;;;;;;5.43;3.10;;;;;;;;;;4848846;29;20041;-64
2022/06/01 10:31:37;;;;;;;9.57;3.30;;;;;;;;;;4862045;29;20041;-64
2022/06/01 10:34:02;;;;;;;4.15;2.97;;;;;;;;;;4849668;29;20119;-64
2022/06/01 10:36:48;;;;;;;7.00;3.20;;;;;;;;;;4847182;29;20581;-64
2022/06/01 10:39:23;;;;;;;6.25;3.60;;;;;;;;;;4831051;29;20044;-63
2022/06/01 10:41:59;;;;;;;8.13;3.80;;;;;;;;;;4846376;29;20045;-66
2022/06/01 10:44:28;;;;;;;6.40;3.60;;;;;;;;;;4846998;29;22158;-64
2022/06/01 10:46:57;;;;;;;5.60;3.35;;;;;;;;;;4847976;29;20041;-62
2022/06/01 10:49:22;;;;;;;8.98;3.20;;;;;;;;;;4848735;29;20112;-61
2022/06/01 10:52:03;;;;;;;8.63;3.53;;;;;;;;;;4848435;29;20060;-61
2022/06/01 10:54:36;;;;;;;6.43;3.13;;;;;;;;;;4848273;29;20062;-61
2022/06/01 10:57:05;;;;;;;7.00;3.22;;;;;;;;;;4847235;29;20066;-63
2022/06/01 10:59:34;;;;;;;7.22;3.65;;;;;;;;;;4849266;29;20044;-61
2022/06/01 11:02:13;;;;;;;5.88;3.38;;;;;;;;;;4847188;29;20041;-62
2022/06/01 11:04:48;;;;;;;7.88;3.58;;;;;;;;;;4847828;29;20977;-62
2022/06/01 11:07:31;;;;;;;6.78;3.53;;;;;;;;;;4845559;29;20052;-61
2022/06/01 11:10:16;;;;;;;6.63;3.67;;;;;;;;;;4843455;29;20044;-62
2022/06/01 11:12:56;;;;;;;7.80;3.50;;;;;;;;;;4846019;29;20072;-64
2022/06/01 11:15:25;;;;;;;8.63;3.80;;;;;;;;;;4840996;29;20040;-65
2022/06/01 11:17:55;;;;;;;7.43;4.05;;;;;;;;;;4827623;29;20851;-65
2022/06/01 11:20:31;;;;;;;9.77;3.88;;;;;;;;;;4844893;29;20112;-65
2022/06/01 11:23:14;;;;;;;7.80;3.47;;;;;;;;;;4846318;29;20676;-64
2022/06/01 11:26:01;;;;;;;6.70;3.90;;;;;;;;;;4823841;29;20927;-64
2022/06/01 11:28:47;;;;;;;10.57;3.65;;;;;;;;;;4830018;29;20659;-65
2022/06/01 11:31:20;;;;;;;8.75;3.63;;;;;;;;;;4844495;29;20040;-65
2022/06/01 11:33:57;;;;;;;5.35;3.55;;;;;;;;;;4845341;29;20893;-64
2022/06/01 11:36:37;;;;;;;4.63;3.20;;;;;;;;;;4844274;29;20040;-64
2022/06/01 11:39:14;;;;;;;8.18;3.25;;;;;;;;;;4864024;29;20051;-64
2022/06/01 11:41:49;;;;;;;8.57;3.22;;;;;;;;;;4860331;29;20455;-62
2022/06/01 11:44:20;;;;;;;8.25;3.88;;;;;;;;;;4862109;29;20352;-63
2022/06/01 11:47:05;;;;;;;7.53;3.00;;;;;;;;;;4862097;29;20067;-63
2022/06/01 11:49:30;;;;;;;5.03;3.20;;;;;;;;;;4862331;29;20766;-63
2022/06/01 11:52:09;;;;;;;5.18;3.30;;;;;;;;;;4864706;29;20052;-63
2022/06/01 11:54:36;;;;;;;8.95;3.53;;;;;;;;;;4864102;29;20043;-63
2022/06/01 11:57:37;;;;;;;5.35;2.80;;;;;;;;;;4864075;29;20036;-63
2022/06/01 12:00:11;;;;;;;4.88;2.67;;;;;;;;;;4782672;29;20073;-63
2022/06/01 12:02:40;;;;;;;6.65;2.72;;;;;;;;;;4848484;29;20662;-63
2022/06/01 12:05:08;;;;;;;7.60;2.95;;;;;;;;;;4862030;29;20528;-63
2022/06/01 12:07:38;;;;;;;4.30;2.28;;;;;;;;;;4862689;29;22699;-62
2022/06/01 12:10:21;;;;;;;5.13;2.15;;;;;;;;;;4861400;29;20567;-63
2022/06/01 12:12:55;;;;;;;5.55;2.13;;;;;;;;;;4856772;29;21001;-65
2022/06/01 12:15:21;;;;;;;5.32;1.90;;;;;;;;;;4860123;29;20036;-64
2022/06/01 12:18:04;;;;;;;8.27;1.92;;;;;;;;;;4860222;29;20048;-64
2022/06/01 12:20:33;;;;;;;5.07;1.70;;;;;;;;;;4858643;29;20281;-65
2022/06/01 12:28:51;;;;;;;4.68;1.90;;;;;;;;;;4860795;29;20175;-64
2022/06/01 12:31:30;;;;;;;4.32;1.83;;;;;;;;;;4859509;29;20067;-64
2022/06/01 12:34:02;;;;;;;6.05;2.40;;;;;;;;;;4860149;29;20575;-64
2022/06/01 12:36:33;;;;;;;4.07;2.30;;;;;;;;;;4858716;29;20148;-62
2022/06/01 12:38:58;;;;;;;5.00;1.90;;;;;;;;;;4859907;29;20980;-65
2022/06/01 12:41:28;;;;;;;7.25;1.83;;;;;;;;;;4845026;29;20160;-64
2022/06/01 12:43:55;;;;;;;4.65;2.00;;;;;;;;;;4858631;29;20623;-65
2022/06/01 12:46:53;;;;;;;5.13;2.65;;;;;;;;;;4838934;29;20529;-65
2022/06/01 12:49:22;;;;;;;8.00;2.58;;;;;;;;;;4800350;29;20128;-65
2022/06/01 12:51:49;;;;;;;5.35;2.80;;;;;;;;;;4860630;29;20104;-65
2022/06/01 12:54:24;;;;;;;8.07;3.00;;;;;;;;;;4861082;29;20041;-65
2022/06/01 12:56:49;;;;;;;7.05;3.45;;;;;;;;;;4841448;29;20382;-65
2022/06/01 12:59:16;;;;;;;5.55;3.10;;;;;;;;;;4860451;29;20324;-65
2022/06/01 13:01:41;;;;;;;9.23;3.90;;;;;;;;;;4858530;29;20285;-65
2022/06/01 13:04:06;;;;;;;5.95;2.83;;;;;;;;;;4844849;29;20543;-64
2022/06/01 13:06:32;;;;;;;6.18;2.47;;;;;;;;;;4860508;29;20123;-65
2022/06/01 13:09:06;;;;;;;7.70;3.00;;;;;;;;;;4862392;29;20993;-65
2022/06/01 13:11:34;;;;;;;8.13;2.50;;;;;;;;;;4861181;29;20036;-65
2022/06/01 13:14:01;;;;;;;5.38;2.28;;;;;;;;;;4860809;29;20040;-65
2022/06/01 13:16:38;;;;;;;4.60;1.63;;;;;;;;;;4862942;29;20371;-62
2022/06/01 13:19:18;;;;;;;3.63;2.08;;;;;;;;;;4859829;29;20048;-66
2022/06/01 13:21:48;;;;;;;4.35;2.10;;;;;;;;;;4859649;29;20055;-64
2022/06/01 13:24:14;;;;;;;5.40;2.20;;;;;;;;;;4861027;29;20142;-64
2022/06/01 13:26:40;;;;;;;4.13;2.38;;;;;;;;;;4863028;29;20070;-63
2022/06/01 13:29:09;;;;;;;3.15;2.67;;;;;;;;;;4840279;29;20123;-64
2022/06/01 13:31:35;;;;;;;6.57;2.80;;;;;;;;;;4859720;29;20587;-62
2022/06/01 13:34:01;;;;;;;6.13;2.80;;;;;;;;;;4852027;29;20071;-63
2022/06/01 13:36:30;;;;;;;7.03;2.90;;;;;;;;;;4861769;29;20145;-63
2022/06/01 13:39:10;;;;;;;5.82;2.47;;;;;;;;;;4835108;29;20056;-62
2022/06/01 13:41:56;;;;;;;4.13;2.35;;;;;;;;;;4862562;29;20616;-63
2022/06/01 13:44:40;;;;;;;3.72;2.38;;;;;;;;;;4861835;29;20090;-62
2022/06/01 13:47:09;;;;;;;4.18;2.22;;;;;;;;;;4849539;29;20041;-62
2022/06/01 13:49:34;;;;;;;7.43;2.60;;;;;;;;;;4865867;29;20047;-63
2022/06/01 13:52:02;;;;;;;5.55;2.33;;;;;;;;;;4865177;29;20047;-63
2022/06/01 13:54:30;;;;;;;5.50;2.50;;;;;;;;;;4865142;29;20570;-63
2022/06/01 13:57:15;;;;;;;5.35;2.20;;;;;;;;;;4848090;29;20428;-63
2022/06/01 13:59:50;;;;;;;6.22;2.55;;;;;;;;;;4866381;29;20040;-63
2022/06/01 14:02:22;;;;;;;7.07;2.78;;;;;;;;;;4864670;29;22401;-62
2022/06/01 14:04:50;;;;;;;4.22;2.45;;;;;;;;;;4858325;29;20076;-64
2022/06/01 14:07:17;;;;;;;6.65;3.17;;;;;;;;;;4863995;29;22637;-63
2022/06/01 14:09:52;;;;;;;6.90;2.42;;;;;;;;;;4841751;29;21810;-63
2022/06/01 14:12:18;;;;;;;5.78;2.92;;;;;;;;;;4863806;29;20085;-63
2022/06/01 14:14:44;;;;;;;6.38;3.00;;;;;;;;;;4863763;29;20560;-64
2022/06/01 14:17:10;;;;;;;6.60;3.08;;;;;;;;;;4862441;29;20039;-62
2022/06/01 14:19:36;;;;;;;4.60;2.58;;;;;;;;;;4833514;29;20037;-63
2022/06/01 14:22:02;;;;;;;5.88;2.53;;;;;;;;;;4857612;29;20108;-64
2022/06/01 14:28:28;;;;;;;4.45;2.30;;;;;;;;;;4866422;29;20048;-67
2022/06/01 14:29:57;;;;;;;5.30;2.05;;;;;;;;;;4866091;29;20037;-62
2022/06/01 14:32:23;;;;;;;6.25;1.75;;;;;;;;;;4860672;29;20040;-63
2022/06/01 14:34:50;;;;;;;5.85;1.75;;;;;;;;;;4858502;29;20703;-62
2022/06/01 14:37:16;;;;;;;4.50;1.88;;;;;;;;;;4862580;29;20131;-62
2022/06/01 14:39:41;;;;;;;5.80;2.10;;;;;;;;;;4865493;29;20127;-64
2022/06/01 14:42:07;;;;;;;6.50;1.70;;;;;;;;;;4862143;29;20570;-63
2022/06/01 14:44:33;;;;;;;2.88;1.75;;;;;;;;;;4862535;29;20060;-64
2022/06/01 14:47:00;;;;;;;3.58;2.00;;;;;;;;;;4858349;29;20147;-63
2022/06/01 14:49:28;;;;;;;4.88;1.55;;;;;;;;;;4860549;29;20898;-62
2022/06/01 14:51:55;;;;;;;3.00;1.20;;;;;;;;;;4866957;29;20036;-64
2022/06/01 14:54:22;;;;;;;4.13;1.40;;;;;;;;;;4848162;29;20108;-63
2022/06/01 14:56:50;;;;;;;3.60;1.30;;;;;;;;;;4866813;29;20618;-62
2022/06/01 14:59:15;;;;;;;3.70;1.00;;;;;;;;;;4834960;29;20127;-63
2022/06/01 15:01:42;;;;;;;2.35;1.00;;;;;;;;;;4867139;29;20058;-63
2022/06/01 15:04:13;;;;;;;2.92;1.23;;;;;;;;;;4866777;29;20103;-64
2022/06/01 15:06:39;;;;;;;2.47;1.00;;;;;;;;;;4848306;29;20044;-64
2022/06/01 15:09:07;;;;;;;3.05;1.10;;;;;;;;;;4867912;29;21178;-63
2022/06/01 15:11:33;;;;;;;2.13;1.00;;;;;;;;;;4867696;29;20151;-63
2022/06/01 15:13:59;;;;;;;3.05;1.20;;;;;;;;;;4867108;29;20058;-64
2022/06/01 15:16:24;;;;;;;5.50;1.15;;;;;;;;;;4867662;29;20040;-65
2022/06/01 15:18:53;;;;;;;1.20;0.90;;;;;;;;;;4848045;29;20048;-62
2022/06/01 15:21:19;;;;;;;4.82;1.42;;;;;;;;;;4867850;29;20045;-63
2022/06/01 15:23:44;;;;;;;2.55;1.13;;;;;;;;;;4867705;29;20840;-63
2022/06/01 15:26:11;;;;;;;5.15;1.33;;;;;;;;;;4866430;29;20039;-63
2022/06/01 15:28:37;;;;;;;4.40;1.20;;;;;;;;;;4867887;29;20131;-64